PWSweather.com
Personal Weather Stations
Station Observations
KNYSYRAC2
Fairmount Hills, Fairmount, NY 13219

Fairmount HillsFairmount, NY 13219

Lat: 43.03602, Lon: -76.247151

Elevation: 663

Station Type: Ambient Weather WS-2080

http://weather.cerchia.com

High Low Average
Temperature 41.3°F5.2°F 31.0°F-0.6°F 36.4°F2.4°F
Dew Point 37.3°F2.9°F 24.2°F-4.3°F 30.7°F-0.7°F
Winds 7.1 mph WNW11.4 mph WNW Calm Calm 2.6 mph 4.2 mph
Wind Gusts 19.9 mph32.0 mph -- 7.8 mph12.6 mph
Humidity 100% 64% 81%
Pressure 29.99 in1015.60 in 29.83 in1010.20 in -
Precipitation 0.93 in23.60 in - -
Hour Temp Dew Point Humidity Winds Wind Gusts Pressure Precip Precip Rate Daily Precip Total
12:00 AM 32.3°F0.2°C 29.7°F-1.3°C 90% Calm Calm -- 29.84 in1010.5 mb 0.00 in0.0 mm 0.00 in0.0 mm 0.00 in0.0 mm
12:15 AM 32.3°F0.2°C 29.9°F-1.2°C 91% Calm Calm -- 29.85 in1010.8 mb 0.00 in0.0 mm 0.00 in0.0 mm 0.00 in0.0 mm
12:30 AM 32.3°F0.2°C 29.9°F-1.2°C 91% Calm Calm -- 29.84 in1010.5 mb 0.00 in0.0 mm 0.00 in0.0 mm 0.00 in0.0 mm
12:45 AM 32.3°F0.2°C 29.9°F-1.2°C 91% Calm Calm -- 29.84 in1010.5 mb 0.00 in0.0 mm 0.00 in0.0 mm 0.00 in0.0 mm
01:00 AM 32.3°F0.2°C 30.2°F-1.0°C 92% Calm Calm -- 29.84 in1010.5 mb 0.00 in0.0 mm 0.00 in0.0 mm 0.00 in0.0 mm
01:15 AM 32.3°F0.2°C 30.2°F-1.0°C 92% Calm Calm -- 29.83 in1010.2 mb 0.00 in0.0 mm 0.00 in0.0 mm 0.00 in0.0 mm
01:30 AM 32.3°F0.2°C 30.2°F-1.0°C 92% Calm Calm -- 29.83 in1010.2 mb 0.00 in0.0 mm 0.00 in0.0 mm 0.00 in0.0 mm
01:45 AM 32.4°F0.2°C 30.6°F-0.8°C 93% Calm Calm -- 29.83 in1010.2 mb 0.00 in0.0 mm 0.00 in0.0 mm 0.00 in0.0 mm
02:00 AM 32.4°F0.2°C 30.6°F-0.8°C 93% Calm Calm -- 29.83 in1010.2 mb 0.00 in0.0 mm 0.00 in0.0 mm 0.00 in0.0 mm
02:15 AM 32.4°F0.2°C 30.6°F-0.8°C 93% Calm Calm -- 29.84 in1010.5 mb 0.00 in0.0 mm 0.00 in0.0 mm 0.00 in0.0 mm
02:30 AM 32.4°F0.2°C 30.6°F-0.8°C 93% Calm Calm -- 29.84 in1010.5 mb 0.00 in0.0 mm 0.00 in0.0 mm 0.00 in0.0 mm
02:45 AM 32.3°F0.2°C 30.7°F-0.7°C 94% Calm Calm -- 29.84 in1010.5 mb 0.00 in0.0 mm 0.00 in0.0 mm 0.00 in0.0 mm
03:00 AM 32.3°F0.2°C 30.7°F-0.7°C 94% Calm Calm -- 29.84 in1010.5 mb 0.00 in0.0 mm 0.00 in0.0 mm 0.00 in0.0 mm
03:15 AM 32.3°F0.2°C 30.7°F-0.7°C 94% Calm Calm -- 29.84 in1010.5 mb 0.00 in0.0 mm 0.00 in0.0 mm 0.00 in0.0 mm
03:30 AM 32.3°F0.2°C 30.7°F-0.7°C 94% Calm Calm -- 29.84 in1010.5 mb 0.00 in0.0 mm 0.00 in0.0 mm 0.00 in0.0 mm
03:45 AM 32.3°F0.2°C 30.7°F-0.7°C 94% Calm Calm -- 29.85 in1010.8 mb 0.00 in0.0 mm 0.00 in0.0 mm 0.00 in0.0 mm
04:00 AM 32.4°F0.2°C 30.9°F-0.6°C 94% Calm Calm -- 29.85 in1010.8 mb 0.00 in0.0 mm 0.00 in0.0 mm 0.00 in0.0 mm
04:15 AM 32.4°F0.2°C 30.9°F-0.6°C 94% Calm Calm -- 29.85 in1010.8 mb 0.00 in0.0 mm 0.00 in0.0 mm 0.00 in0.0 mm
04:30 AM 32.4°F0.2°C 30.9°F-0.6°C 94% Calm Calm -- 29.84 in1010.5 mb 0.00 in0.0 mm 0.00 in0.0 mm 0.00 in0.0 mm
04:45 AM 32.4°F0.2°C 30.9°F-0.6°C 94% Calm Calm -- 29.84 in1010.5 mb 0.00 in0.0 mm 0.00 in0.0 mm 0.00 in0.0 mm
05:00 AM 32.8°F0.4°C 31.3°F-0.4°C 94% Calm Calm -- 29.84 in1010.5 mb 0.00 in0.0 mm 0.00 in0.0 mm 0.00 in0.0 mm
05:15 AM 33.9°F1.1°C 32.3°F0.2°C 94% 0.4 mph SW0.6 kmh SW 4.8 mph7.7 kmh 29.85 in1010.8 mb 0.00 in0.0 mm 0.00 in0.0 mm 0.00 in0.0 mm
05:30 AM 34.8°F1.6°C 33.2°F0.7°C 94% 2.9 mph SSW4.7 kmh SSW 12.3 mph19.8 kmh 29.85 in1010.8 mb 0.01 in0.3 mm 0.04 in1.0 mm 0.01 in0.3 mm
05:45 AM 35.1°F1.7°C 33.6°F0.9°C 94% 2.7 mph SW4.3 kmh SW 8.7 mph14.0 kmh 29.86 in1011.2 mb 0.04 in1.0 mm 0.12 in3.0 mm 0.04 in1.0 mm
06:00 AM 35.5°F1.9°C 34.5°F1.4°C 96% 4.1 mph SSW6.6 kmh SSW 9.5 mph15.3 kmh 29.86 in1011.2 mb 0.05 in1.3 mm 0.01 in0.3 mm 0.05 in1.3 mm
06:15 AM 36.0°F2.2°C 35.0°F1.7°C 96% 3.3 mph SW5.3 kmh SW 7.5 mph12.1 kmh 29.87 in1011.5 mb 0.06 in1.5 mm 0.04 in1.0 mm 0.06 in1.5 mm
06:30 AM 36.4°F2.4°C 36.4°F2.4°C 100% 4.0 mph SSW6.4 kmh SSW 13.4 mph21.6 kmh 29.86 in1011.2 mb 0.07 in1.8 mm 0.04 in1.0 mm 0.08 in2.0 mm
06:45 AM 36.4°F2.4°C 36.1°F2.3°C 99% 4.2 mph SW6.8 kmh SW 11.5 mph18.5 kmh 29.87 in1011.5 mb 0.06 in1.5 mm 0.00 in0.0 mm 0.09 in2.3 mm
07:00 AM 36.6°F2.6°C 36.3°F2.4°C 99% 3.5 mph SSW5.6 kmh SSW 8.7 mph14.0 kmh 29.87 in1011.5 mb 0.06 in1.5 mm 0.00 in0.0 mm 0.11 in2.8 mm
07:15 AM 36.8°F2.7°C 36.5°F2.5°C 99% 6.2 mph S10.0 kmh S 11.5 mph18.5 kmh 29.88 in1011.9 mb 0.06 in1.5 mm 0.00 in0.0 mm 0.12 in3.0 mm
07:30 AM 36.9°F2.7°C 36.7°F2.6°C 99% 5.7 mph WSW9.2 kmh WSW 13.4 mph21.6 kmh 29.89 in1012.2 mb 0.05 in1.3 mm 0.00 in0.0 mm 0.13 in3.3 mm
07:45 AM 37.3°F2.9°C 36.8°F2.7°C 98% 6.6 mph WSW10.6 kmh WSW 16.2 mph26.1 kmh 29.90 in1012.5 mb 0.05 in1.3 mm 0.00 in0.0 mm 0.14 in3.6 mm
08:00 AM 37.8°F3.2°C 37.3°F2.9°C 98% 6.6 mph W10.6 kmh W 18.2 mph29.3 kmh 29.90 in1012.5 mb 0.05 in1.3 mm 0.00 in0.0 mm 0.15 in3.8 mm
08:15 AM 38.0°F3.3°C 37.2°F2.9°C 97% 6.2 mph W10.0 kmh W 15.1 mph24.3 kmh 29.91 in1012.9 mb 0.05 in1.3 mm 0.00 in0.0 mm 0.17 in4.3 mm
08:30 AM 38.0°F3.3°C 36.4°F2.4°C 94% 4.5 mph WSW7.2 kmh WSW 14.3 mph23.0 kmh 29.92 in1013.2 mb 0.05 in1.3 mm 0.00 in0.0 mm 0.18 in4.6 mm
08:45 AM 38.0°F3.3°C 36.2°F2.3°C 93% 3.9 mph W6.3 kmh W 9.5 mph15.3 kmh 29.92 in1013.2 mb 0.04 in1.0 mm 0.00 in0.0 mm 0.18 in4.6 mm
09:00 AM 38.0°F3.3°C 35.9°F2.2°C 92% 3.0 mph WSW4.8 kmh WSW 9.5 mph15.3 kmh 29.93 in1013.5 mb 0.04 in1.0 mm 0.00 in0.0 mm 0.19 in4.8 mm
09:15 AM 38.7°F3.7°C 36.3°F2.4°C 91% 3.8 mph W6.1 kmh W 9.5 mph15.3 kmh 29.93 in1013.5 mb 0.02 in0.5 mm 0.00 in0.0 mm 0.19 in4.8 mm
09:30 AM 38.6°F3.7°C 35.3°F1.8°C 88% 4.1 mph WNW6.6 kmh WNW 10.3 mph16.6 kmh 29.94 in1013.9 mb 0.02 in0.5 mm 0.00 in0.0 mm 0.20 in5.1 mm
09:45 AM 38.6°F3.7°C 35.0°F1.7°C 87% 4.2 mph NW6.8 kmh NW 12.3 mph19.8 kmh 29.95 in1014.2 mb 0.04 in1.0 mm 0.08 in2.0 mm 0.21 in5.3 mm
10:00 AM 39.1°F3.9°C 35.3°F1.8°C 86% 3.5 mph NW5.6 kmh NW 10.3 mph16.6 kmh 29.95 in1014.2 mb 0.04 in1.0 mm 0.00 in0.0 mm 0.22 in5.6 mm
10:15 AM 39.5°F4.2°C 35.6°F2.0°C 86% 3.0 mph NW4.8 kmh NW 13.4 mph21.6 kmh 29.95 in1014.2 mb 0.04 in1.0 mm 0.00 in0.0 mm 0.22 in5.6 mm
10:30 AM 39.6°F4.2°C 35.5°F1.9°C 85% 5.0 mph NW8.0 kmh NW 13.4 mph21.6 kmh 29.96 in1014.6 mb 0.02 in0.5 mm 0.00 in0.0 mm 0.22 in5.6 mm
10:45 AM 39.5°F4.2°C 33.8°F1.0°C 80% 6.6 mph W10.6 kmh W 19.9 mph32.0 kmh 29.96 in1014.6 mb 0.01 in0.3 mm 0.00 in0.0 mm 0.22 in5.6 mm
11:00 AM 39.8°F4.3°C 32.9°F0.5°C 76% 7.1 mph WNW11.4 kmh WNW 19.0 mph30.6 kmh 29.95 in1014.2 mb 0.00 in0.0 mm 0.00 in0.0 mm 0.22 in5.6 mm
11:15 AM 40.2°F4.6°C 32.6°F0.3°C 74% 5.9 mph NW9.5 kmh NW 16.2 mph26.1 kmh 29.95 in1014.2 mb 0.00 in0.0 mm 0.00 in0.0 mm 0.22 in5.6 mm
11:30 AM 40.7°F4.8°C 31.7°F-0.2°C 70% 5.8 mph NW9.3 kmh NW 15.1 mph24.3 kmh 29.95 in1014.2 mb 0.00 in0.0 mm 0.00 in0.0 mm 0.22 in5.6 mm
11:45 AM 40.7°F4.8°C 32.0°F0.0°C 71% 4.2 mph NW6.8 kmh NW 12.3 mph19.8 kmh 29.94 in1013.9 mb 0.00 in0.0 mm 0.00 in0.0 mm 0.22 in5.6 mm
12:00 PM 40.5°F4.7°C 32.2°F0.1°C 72% 3.5 mph NNW5.6 kmh NNW 11.5 mph18.5 kmh 29.94 in1013.9 mb 0.00 in0.0 mm 0.00 in0.0 mm 0.22 in5.6 mm
12:15 PM 40.5°F4.7°C 32.2°F0.1°C 72% 3.4 mph N5.5 kmh N 10.3 mph16.6 kmh 29.93 in1013.5 mb 0.00 in0.0 mm 0.00 in0.0 mm 0.22 in5.6 mm
12:30 PM 40.7°F4.8°C 32.0°F0.0°C 71% 4.6 mph NW7.4 kmh NW 14.3 mph23.0 kmh 29.93 in1013.5 mb 0.00 in0.0 mm 0.00 in0.0 mm 0.22 in5.6 mm
12:45 PM 40.9°F4.9°C 32.2°F0.1°C 71% 3.9 mph NW6.3 kmh NW 13.4 mph21.6 kmh 29.94 in1013.9 mb 0.00 in0.0 mm 0.00 in0.0 mm 0.22 in5.6 mm
01:00 PM 40.9°F4.9°C 32.2°F0.1°C 71% 3.9 mph NW6.3 kmh NW 11.5 mph18.5 kmh 29.94 in1013.9 mb 0.00 in0.0 mm 0.00 in0.0 mm 0.22 in5.6 mm
01:15 PM 40.4°F4.7°C 32.0°F0.0°C 72% 4.1 mph N6.6 kmh N 11.5 mph18.5 kmh 29.94 in1013.9 mb 0.00 in0.0 mm 0.00 in0.0 mm 0.22 in5.6 mm
01:30 PM 40.7°F4.8°C 33.1°F0.6°C 74% 5.5 mph NW8.9 kmh NW 16.2 mph26.1 kmh 29.94 in1013.9 mb 0.00 in0.0 mm 0.00 in0.0 mm 0.22 in5.6 mm
01:45 PM 40.7°F4.8°C 32.0°F0.0°C 71% 3.8 mph NW6.1 kmh NW 13.4 mph21.6 kmh 29.96 in1014.6 mb 0.00 in0.0 mm 0.00 in0.0 mm 0.22 in5.6 mm
02:00 PM 40.5°F4.7°C 30.4°F-0.9°C 67% 4.5 mph WNW7.2 kmh WNW 16.2 mph26.1 kmh 29.95 in1014.2 mb 0.00 in0.0 mm 0.00 in0.0 mm 0.22 in5.6 mm
02:15 PM 40.7°F4.8°C 30.6°F-0.8°C 67% 4.1 mph WNW6.6 kmh WNW 10.3 mph16.6 kmh 29.95 in1014.2 mb 0.00 in0.0 mm 0.00 in0.0 mm 0.22 in5.6 mm
02:30 PM 40.7°F4.8°C 30.6°F-0.8°C 67% 2.5 mph NW4.0 kmh NW 8.7 mph14.0 kmh 29.95 in1014.2 mb 0.00 in0.0 mm 0.00 in0.0 mm 0.22 in5.6 mm
02:45 PM 40.7°F4.8°C 30.6°F-0.8°C 67% 3.9 mph NW6.3 kmh NW 11.5 mph18.5 kmh 29.96 in1014.6 mb 0.00 in0.0 mm 0.00 in0.0 mm 0.22 in5.6 mm
03:00 PM 41.3°F5.2°C 31.1°F-0.5°C 67% 3.2 mph NW5.1 kmh NW 14.3 mph23.0 kmh 29.96 in1014.6 mb 0.00 in0.0 mm 0.00 in0.0 mm 0.22 in5.6 mm
03:15 PM 40.7°F4.8°C 29.5°F-1.4°C 64% 4.7 mph NW7.6 kmh NW 14.3 mph23.0 kmh 29.97 in1014.9 mb 0.00 in0.0 mm 0.00 in0.0 mm 0.22 in5.6 mm
03:30 PM 40.2°F4.6°C 29.3°F-1.5°C 65% 2.6 mph NW4.2 kmh NW 6.7 mph10.8 kmh 29.98 in1015.2 mb 0.00 in0.0 mm 0.00 in0.0 mm 0.22 in5.6 mm
03:45 PM 40.0°F4.4°C 29.2°F-1.6°C 65% 3.6 mph WNW5.8 kmh WNW 10.3 mph16.6 kmh 29.98 in1015.2 mb 0.00 in0.0 mm 0.00 in0.0 mm 0.22 in5.6 mm
04:00 PM 39.6°F4.2°C 29.2°F-1.6°C 66% 4.9 mph NNW7.9 kmh NNW 12.3 mph19.8 kmh 29.99 in1015.6 mb 0.00 in0.0 mm 0.00 in0.0 mm 0.22 in5.6 mm
04:15 PM 39.3°F4.1°C 29.2°F-1.6°C 67% 3.7 mph NW6.0 kmh NW 12.3 mph19.8 kmh 29.99 in1015.6 mb 0.00 in0.0 mm 0.00 in0.0 mm 0.22 in5.6 mm
04:30 PM 38.7°F3.7°C 29.1°F-1.6°C 68% 2.8 mph WNW4.5 kmh WNW 10.3 mph16.6 kmh 29.99 in1015.6 mb 0.00 in0.0 mm 0.00 in0.0 mm 0.22 in5.6 mm
04:45 PM 38.2°F3.4°C 28.6°F-1.9°C 68% 2.3 mph WNW3.7 kmh WNW 6.7 mph10.8 kmh 29.99 in1015.6 mb 0.00 in0.0 mm 0.00 in0.0 mm 0.22 in5.6 mm
05:00 PM 37.8°F3.2°C 28.9°F-1.7°C 70% 1.5 mph SW2.4 kmh SW 5.6 mph9.0 kmh 29.99 in1015.6 mb 0.00 in0.0 mm 0.00 in0.0 mm 0.22 in5.6 mm
05:15 PM 37.5°F3.1°C 28.9°F-1.7°C 71% 2.8 mph W4.5 kmh W 7.5 mph12.1 kmh 29.99 in1015.6 mb 0.00 in0.0 mm 0.00 in0.0 mm 0.22 in5.6 mm
05:30 PM 37.3°F2.9°C 28.8°F-1.8°C 71% 3.4 mph W5.5 kmh W 7.5 mph12.1 kmh 29.99 in1015.6 mb 0.00 in0.0 mm 0.00 in0.0 mm 0.22 in5.6 mm
05:45 PM 37.5°F3.1°C 28.2°F-2.1°C 69% 3.4 mph WSW5.5 kmh WSW 9.5 mph15.3 kmh 29.99 in1015.6 mb 0.00 in0.0 mm 0.00 in0.0 mm 0.22 in5.6 mm
06:00 PM 37.5°F3.1°C 28.2°F-2.1°C 69% 4.3 mph WSW6.9 kmh WSW 11.5 mph18.5 kmh 29.98 in1015.2 mb 0.00 in0.0 mm 0.00 in0.0 mm 0.22 in5.6 mm
06:15 PM 37.5°F3.1°C 28.2°F-2.1°C 69% 3.0 mph W4.8 kmh W 8.7 mph14.0 kmh 29.99 in1015.6 mb 0.00 in0.0 mm 0.00 in0.0 mm 0.22 in5.6 mm
06:30 PM 37.5°F3.1°C 28.2°F-2.1°C 69% 2.5 mph SW4.0 kmh SW 6.7 mph10.8 kmh 29.98 in1015.2 mb 0.00 in0.0 mm 0.00 in0.0 mm 0.22 in5.6 mm
06:45 PM 37.1°F2.8°C 28.2°F-2.1°C 70% 1.5 mph SSW2.4 kmh SSW 7.5 mph12.1 kmh 29.99 in1015.6 mb 0.00 in0.0 mm 0.00 in0.0 mm 0.22 in5.6 mm
07:00 PM 37.1°F2.8°C 28.2°F-2.1°C 70% 2.8 mph WSW4.5 kmh WSW 11.5 mph18.5 kmh 29.99 in1015.6 mb 0.00 in0.0 mm 0.00 in0.0 mm 0.22 in5.6 mm
07:15 PM 37.3°F2.9°C 28.1°F-2.2°C 69% 3.6 mph W5.8 kmh W 11.5 mph18.5 kmh 29.99 in1015.6 mb 0.00 in0.0 mm 0.00 in0.0 mm 0.22 in5.6 mm
07:30 PM 37.3°F2.9°C 27.7°F-2.4°C 68% 2.0 mph W3.2 kmh W 10.3 mph16.6 kmh 29.99 in1015.6 mb 0.00 in0.0 mm 0.00 in0.0 mm 0.22 in5.6 mm
07:45 PM 36.9°F2.7°C 27.0°F-2.8°C 67% 2.7 mph W4.3 kmh W 8.7 mph14.0 kmh 29.99 in1015.6 mb 0.00 in0.0 mm 0.00 in0.0 mm 0.22 in5.6 mm
08:00 PM 36.8°F2.7°C 26.8°F-2.9°C 67% 1.0 mph WNW1.6 kmh WNW 5.6 mph9.0 kmh 29.98 in1015.2 mb 0.00 in0.0 mm 0.00 in0.0 mm 0.22 in5.6 mm
08:15 PM 36.0°F2.2°C 25.0°F-3.9°C 64% 0.5 mph WNW0.8 kmh WNW 2.8 mph4.5 kmh 29.98 in1015.2 mb 0.00 in0.0 mm 0.00 in0.0 mm 0.22 in5.6 mm
08:30 PM 35.5°F1.9°C 24.5°F-4.2°C 64% 1.5 mph SW2.4 kmh SW 4.8 mph7.7 kmh 29.98 in1015.2 mb 0.00 in0.0 mm 0.00 in0.0 mm 0.22 in5.6 mm
08:45 PM 34.8°F1.6°C 24.2°F-4.3°C 65% 1.0 mph SW1.6 kmh SW 4.8 mph7.7 kmh 29.98 in1015.2 mb 0.00 in0.0 mm 0.00 in0.0 mm 0.22 in5.6 mm
09:00 PM 34.1°F1.2°C 24.6°F-4.1°C 68% 1.5 mph S2.4 kmh S 4.8 mph7.7 kmh 29.98 in1015.2 mb 0.00 in0.0 mm 0.00 in0.0 mm 0.22 in5.6 mm
09:15 PM 33.7°F0.9°C 24.6°F-4.1°C 69% 0.8 mph SSE1.3 kmh SSE 3.9 mph6.3 kmh 29.98 in1015.2 mb 0.00 in0.0 mm 0.00 in0.0 mm 0.22 in5.6 mm
09:30 PM 32.8°F0.4°C 24.8°F-4.0°C 72% 0.8 mph SE1.3 kmh SE 2.8 mph4.5 kmh 29.98 in1015.2 mb 0.00 in0.0 mm 0.00 in0.0 mm 0.22 in5.6 mm
09:45 PM 32.4°F0.2°C 25.4°F-3.7°C 75% 1.2 mph SE1.9 kmh SE 2.8 mph4.5 kmh 29.97 in1014.9 mb 0.00 in0.0 mm 0.00 in0.0 mm 0.22 in5.6 mm
10:00 PM 31.7°F-0.2°C 25.0°F-3.9°C 76% 0.5 mph SE0.8 kmh SE 2.8 mph4.5 kmh 29.97 in1014.9 mb 0.00 in0.0 mm 0.00 in0.0 mm 0.22 in5.6 mm
10:15 PM 31.2°F-0.4°C 24.8°F-4.0°C 77% 0.2 mph SE0.3 kmh SE 2.8 mph4.5 kmh 29.97 in1014.9 mb 0.00 in0.0 mm 0.00 in0.0 mm 0.22 in5.6 mm
10:30 PM 31.0°F-0.6°C 24.6°F-4.1°C 77% Calm Calm -- 29.97 in1014.9 mb 0.00 in0.0 mm 0.00 in0.0 mm 0.22 in5.6 mm
10:45 PM 31.7°F-0.2°C 25.6°F-3.6°C 78% 1.8 mph SW2.9 kmh SW 6.7 mph10.8 kmh 29.97 in1014.9 mb 0.00 in0.0 mm 0.00 in0.0 mm 0.22 in5.6 mm
11:00 PM 33.5°F0.8°C 26.4°F-3.1°C 75% 3.4 mph WSW5.5 kmh WSW 9.5 mph15.3 kmh 29.97 in1014.9 mb 0.00 in0.0 mm 0.00 in0.0 mm 0.22 in5.6 mm
11:15 PM 34.2°F1.2°C 26.1°F-3.3°C 72% 2.6 mph SW4.2 kmh SW 5.6 mph9.0 kmh 29.96 in1014.6 mb 0.00 in0.0 mm 0.00 in0.0 mm 0.22 in5.6 mm
11:30 PM 34.4°F1.3°C 26.0°F-3.3°C 71% 1.6 mph SE2.6 kmh SE 8.7 mph14.0 kmh 29.97 in1014.9 mb 0.00 in0.0 mm 0.00 in0.0 mm 0.22 in5.6 mm
11:45 PM 34.2°F1.2°C 26.1°F-3.3°C 72% 2.3 mph SSE3.7 kmh SSE 5.6 mph9.0 kmh 29.96 in1014.6 mb 0.00 in0.0 mm 0.00 in0.0 mm 0.22 in5.6 mm